Time;durP1;ratioP1;P1;durP2;ratioP2;P2;SDS_P1;SDS_P2;PMS_P1;PMS_P2;Temp;Humidity;BMP_temperature;BMP_pressure;BME280_temperature;BME280_humidity;BME280_pressure;Samples;Min_cycle;Max_cycle;Signal;HPM_P1;HPM_P2
2022/09/24 00:01:50;;;;;;;3.30;2.50;;;;;;;13.26;75.78;100655.19;5041393;28;20029;-81
2022/09/24 00:04:17;;;;;;;4.45;4.05;;;;;;;13.24;76.15;100654.34;5021343;28;20056;-81
2022/09/24 00:06:48;;;;;;;3.30;3.00;;;;;;;13.23;76.20;100648.22;5030639;28;20049;-80
2022/09/24 00:09:21;;;;;;;4.15;3.83;;;;;;;13.23;76.37;100649.97;4997772;28;20086;-81
2022/09/24 00:11:51;;;;;;;4.55;3.25;;;;;;;13.21;76.11;100646.53;5029709;28;20044;-81
2022/09/24 00:14:20;;;;;;;3.53;3.05;;;;;;;13.19;76.12;100649.19;5031324;28;20044;-81
2022/09/24 00:16:47;;;;;;;7.38;4.38;;;;;;;13.20;76.54;100647.41;5013921;28;20064;-81
2022/09/24 00:19:14;;;;;;;3.58;3.33;;;;;;;13.19;76.86;100651.81;5027692;28;20492;-81
2022/09/24 00:21:43;;;;;;;4.93;3.72;;;;;;;13.20;77.42;100647.41;5013019;28;20045;-81
2022/09/24 00:26:48;;;;;;;3.45;3.13;;;;;;;13.18;77.97;100646.56;5028769;28;20055;-82
2022/09/24 00:27:03;;;;;;;3.60;3.30;;;;;;;13.17;78.46;100647.47;5027215;28;20586;-81
2022/09/24 00:29:31;;;;;;;4.35;3.35;;;;;;;13.16;78.73;100646.59;5027981;28;20041;-81
2022/09/24 00:31:58;;;;;;;9.27;3.83;;;;;;;13.16;79.47;100643.13;5030198;28;20071;-82
2022/09/24 00:34:24;;;;;;;6.85;3.22;;;;;;;13.13;79.79;100648.41;5045324;28;20036;-81
2022/09/24 00:36:51;;;;;;;3.17;2.70;;;;;;;13.09;79.48;100655.50;5011939;28;20051;-81
2022/09/24 00:39:19;;;;;;;3.58;3.28;;;;;;;13.05;80.12;100652.06;5025133;28;20471;-81
2022/09/24 00:41:47;;;;;;;5.03;3.72;;;;;;;13.03;80.24;100645.09;5013407;28;20155;-81
2022/09/24 00:44:52;;;;;;;3.38;3.05;;;;;;;13.01;81.03;100641.63;5029543;28;20787;-81
2022/09/24 00:47:28;;;;;;;4.15;3.55;;;;;;;12.98;81.12;100629.41;5030505;28;20115;-82
2022/09/24 00:50:05;;;;;;;3.53;3.22;;;;;;;12.98;81.16;100633.81;5012446;28;20041;-81
2022/09/24 00:52:35;;;;;;;4.28;3.97;;;;;;;12.97;81.20;100625.09;5025531;28;20057;-81
2022/09/24 00:55:02;;;;;;;5.00;3.20;;;;;;;12.97;81.09;100627.72;5011870;28;20072;-81
2022/09/24 00:57:33;;;;;;;4.07;3.67;;;;;;;12.96;81.52;100628.59;5025768;28;20045;-81
2022/09/24 01:00:01;;;;;;;3.55;3.22;;;;;;;12.97;81.93;100635.59;4998309;28;20049;-81
2022/09/24 01:02:29;;;;;;;3.45;2.70;;;;;;;12.98;80.60;100632.03;5047468;28;20124;-81
2022/09/24 01:04:58;;;;;;;5.60;4.55;;;;;;;12.98;80.86;100629.41;5027387;28;20048;-82
2022/09/24 01:07:25;;;;;;;7.43;4.50;;;;;;;12.99;80.36;100636.41;5022738;28;20041;-81
2022/09/24 01:09:53;;;;;;;3.08;2.67;;;;;;;13.02;80.76;100636.38;5045510;28;20562;-81
2022/09/24 01:12:32;;;;;;;3.78;3.47;;;;;;;13.05;80.78;100632.81;5025776;28;20136;-80
2022/09/24 01:15:26;;;;;;;4.22;3.70;;;;;;;13.06;81.74;100637.16;5048833;28;20047;-80
2022/09/24 01:18:06;;;;;;;3.67;3.20;;;;;;;13.06;81.16;100643.28;5025307;28;21355;-80
2022/09/24 01:20:53;;;;;;;4.55;3.78;;;;;;;13.06;82.04;100629.28;5026549;28;20049;-80
2022/09/24 01:23:44;;;;;;;8.90;4.50;;;;;;;13.06;82.17;100642.41;5030395;28;20069;-81
2022/09/24 01:26:56;;;;;;;3.80;3.47;;;;;;;13.03;82.50;100639.84;5013789;28;20397;-81
2022/09/24 01:29:56;;;;;;;5.32;4.25;;;;;;;13.01;82.49;100634.63;5041234;28;20472;-80
2022/09/24 01:32:41;;;;;;;9.35;4.50;;;;;;;12.99;83.91;100630.31;5031022;28;20124;-81
2022/09/24 01:35:53;;;;;;;7.05;4.95;;;;;;;12.97;83.60;100634.72;5048230;28;20045;-81
2022/09/24 01:38:26;;;;;;;4.05;3.47;;;;;;;12.97;83.98;100625.09;5004724;28;20045;-81
2022/09/24 01:40:58;;;;;;;5.38;4.85;;;;;;;12.97;84.44;100622.47;5011157;28;20141;-80
2022/09/24 01:43:29;;;;;;;8.57;4.80;;;;;;;12.93;84.83;100619.91;5045872;28;20562;-80
2022/09/24 01:45:58;;;;;;;5.35;4.57;;;;;;;12.91;85.26;100619.94;5033091;28;20045;-80
2022/09/24 01:48:26;;;;;;;6.95;4.75;;;;;;;12.88;85.63;100618.25;5030283;28;20146;-81
2022/09/24 01:51:08;;;;;;;4.85;4.45;;;;;;;12.87;85.97;100616.50;5017285;28;20056;-82
2022/09/24 01:53:44;;;;;;;4.47;3.88;;;;;;;12.85;86.17;100615.69;5067347;28;20029;-82
2022/09/24 01:56:27;;;;;;;4.70;4.30;;;;;;;12.82;85.86;100615.72;5039070;28;20037;-81
2022/09/24 01:59:19;;;;;;;4.82;4.15;;;;;;;12.79;86.23;100614.91;5031608;28;20063;-81
2022/09/24 02:02:07;;;;;;;4.60;3.97;;;;;;;12.78;87.24;100610.56;5010712;28;20041;-80
2022/09/24 02:04:41;;;;;;;4.60;4.15;;;;;;;12.74;87.72;100620.25;5033605;28;20075;-80
2022/09/24 02:07:20;;;;;;;5.72;5.18;;;;;;;12.70;86.98;100610.72;5014777;28;20041;-81
2022/09/24 02:09:49;;;;;;;6.88;5.22;;;;;;;12.67;87.98;100606.38;5045567;28;20047;-81
2022/09/24 02:12:28;;;;;;;6.80;4.18;;;;;;;12.63;88.04;100609.94;5027735;28;20086;-81
2022/09/24 02:15:07;;;;;;;5.28;4.78;;;;;;;12.62;88.12;100608.22;5043098;28;20044;-81
2022/09/24 02:17:38;;;;;;;5.43;4.95;;;;;;;12.63;88.82;100609.06;5045185;28;20897;-82
2022/09/24 02:20:15;;;;;;;6.30;5.57;;;;;;;12.61;89.10;100614.38;5014191;28;20063;-82
2022/09/24 02:22:44;;;;;;;4.53;4.13;;;;;;;12.62;89.53;100613.47;5024416;28;20099;-81
2022/09/24 02:25:21;;;;;;;10.15;5.75;;;;;;;12.60;90.38;100609.13;5029261;28;20038;-81
2022/09/24 02:27:50;;;;;;;6.15;5.25;;;;;;;12.56;91.41;100606.56;5028845;28;20041;-81
2022/09/24 02:30:20;;;;;;;5.35;4.90;;;;;;;12.51;91.59;100604.91;5030359;28;20120;-81
2022/09/24 02:32:50;;;;;;;5.35;4.78;;;;;;;12.45;92.75;100603.28;5031299;28;20038;-82
2022/09/24 02:35:17;;;;;;;5.40;4.90;;;;;;;12.42;94.00;100605.94;5029364;28;20061;-81
2022/09/24 02:37:44;;;;;;;6.45;5.85;;;;;;;12.41;94.90;100607.69;5025237;28;20060;-82
2022/09/24 02:40:15;;;;;;;6.55;5.85;;;;;;;12.40;96.23;100605.09;5046234;28;20045;-81
2022/09/24 02:42:43;;;;;;;8.35;5.50;;;;;;;12.40;97.94;100603.34;5029727;28;20165;-81
2022/09/24 02:45:13;;;;;;;8.68;6.07;;;;;;;12.40;98.33;100599.84;5053146;28;20115;-81
2022/09/24 02:47:40;;;;;;;6.70;6.00;;;;;;;12.38;98.49;100602.53;5030383;28;20052;-82
2022/09/24 02:50:07;;;;;;;8.07;7.05;;;;;;;12.37;98.96;100602.53;5033688;28;20048;-82
2022/09/24 02:52:33;;;;;;;7.57;6.93;;;;;;;12.32;98.59;100605.25;5051503;28;20052;-82
2022/09/24 02:55:01;;;;;;;10.77;6.40;;;;;;;12.29;99.20;100601.78;5020659;28;20399;-82
2022/09/24 02:57:27;;;;;;;10.95;9.18;;;;;;;12.23;100.00;100598.38;5034821;28;20124;-82
2022/09/24 02:59:54;;;;;;;10.13;8.18;;;;;;;12.19;100.00;100596.69;5035892;28;20655;-81
2022/09/24 03:02:21;;;;;;;8.88;7.97;;;;;;;12.17;100.00;100598.47;5036788;28;20102;-80
2022/09/24 03:04:51;;;;;;;9.65;8.68;;;;;;;12.17;100.00;100600.25;5032276;28;20048;-82
2022/09/24 03:07:18;;;;;;;11.20;9.68;;;;;;;12.15;100.00;100592.41;5034723;28;20041;-81
2022/09/24 03:09:45;;;;;;;10.60;9.13;;;;;;;12.12;100.00;100591.56;5049795;28;20116;-82
2022/09/24 03:12:12;;;;;;;12.13;9.20;;;;;;;12.10;100.00;100593.34;5032242;28;20045;-82
2022/09/24 03:14:39;;;;;;;12.45;9.00;;;;;;;12.09;100.00;100587.25;5031436;28;20436;-82
2022/09/24 03:17:06;;;;;;;10.98;8.68;;;;;;;12.06;100.00;100582.06;5031794;28;20079;-82
2022/09/24 03:19:40;;;;;;;13.23;9.07;;;;;;;12.05;100.00;100594.28;5014053;28;20033;-81
2022/09/24 03:22:07;;;;;;;10.05;9.05;;;;;;;12.03;100.00;100582.97;5022914;28;20050;-81
2022/09/24 03:24:34;;;;;;;20.67;9.02;;;;;;;12.04;100.00;100587.31;5011734;28;20042;-81
2022/09/24 03:27:00;;;;;;;11.10;8.23;;;;;;;12.03;100.00;100576.84;5011563;28;20518;-81
2022/09/24 03:32:07;;;;;;;12.55;8.80;;;;;;;12.02;100.00;100575.09;5004676;28;20169;-81
2022/09/24 03:34:34;;;;;;;14.15;9.98;;;;;;;12.02;100.00;100572.47;5007163;28;20045;-82
2022/09/24 03:37:01;;;;;;;13.18;11.18;;;;;;;12.00;100.00;100569.88;5009236;28;20069;-80
2022/09/24 03:39:28;;;;;;;16.13;10.57;;;;;;;11.99;100.00;100572.53;5011423;28;20045;-81
2022/09/24 03:41:54;;;;;;;11.60;9.13;;;;;;;11.98;100.00;100568.19;5022725;28;20406;-81
2022/09/24 03:44:21;;;;;;;14.52;10.40;;;;;;;11.97;100.00;100576.94;5028118;28;20113;-82
2022/09/24 03:46:48;;;;;;;10.88;8.93;;;;;;;11.97;100.00;100569.06;5016986;28;20033;-81
2022/09/24 03:49:15;;;;;;;11.15;9.52;;;;;;;11.96;100.00;100568.22;5021347;28;20041;-81
2022/09/24 03:51:42;;;;;;;12.57;9.43;;;;;;;11.97;100.00;100566.44;5034363;28;20037;-80
2022/09/24 03:54:09;;;;;;;12.60;11.30;;;;;;;11.95;100.00;100561.22;5020077;28;20145;-81
2022/09/24 03:56:36;;;;;;;13.45;10.43;;;;;;;11.95;100.00;100565.59;5004742;28;20135;-82
2022/09/24 03:59:07;;;;;;;13.55;11.80;;;;;;;11.94;100.00;100564.69;5053003;28;20038;-82
2022/09/24 04:01:36;;;;;;;14.95;11.55;;;;;;;11.95;100.00;100565.59;5022561;28;20033;-82
2022/09/24 04:04:04;;;;;;;10.70;9.60;;;;;;;11.94;100.00;100561.22;5023115;28;20132;-81
2022/09/24 04:06:34;;;;;;;11.63;9.30;;;;;;;11.93;100.00;100555.13;5041077;28;20033;-81
2022/09/24 04:09:00;;;;;;;11.50;10.30;;;;;;;11.94;100.00;100554.19;5018518;28;20041;-80
2022/09/24 04:11:33;;;;;;;11.80;10.50;;;;;;;11.95;100.00;100557.72;5023123;28;20079;-80
2022/09/24 04:14:01;;;;;;;12.55;11.13;;;;;;;11.99;100.00;100560.28;5035540;28;20033;-80
2022/09/24 04:16:28;;;;;;;12.38;9.93;;;;;;;11.98;100.00;100562.94;5020974;28;20065;-82
2022/09/24 04:18:55;;;;;;;13.88;9.82;;;;;;;11.99;100.00;100565.53;5015384;28;20097;-81
2022/09/24 04:21:29;;;;;;;13.43;10.02;;;;;;;11.97;100.00;100563.81;5015717;28;20049;-81
2022/09/24 04:23:56;;;;;;;10.05;8.82;;;;;;;11.94;100.00;100556.81;5049733;28;20053;-81
2022/09/24 04:26:22;;;;;;;11.02;9.57;;;;;;;11.92;100.00;100550.75;5032358;28;20045;-81
2022/09/24 04:28:49;;;;;;;11.73;8.57;;;;;;;11.88;100.00;100546.47;5017006;28;20055;-80
2022/09/24 04:31:18;;;;;;;10.73;9.65;;;;;;;11.84;100.00;100553.50;5015800;28;20557;-81
2022/09/24 04:33:45;;;;;;;11.95;10.75;;;;;;;11.82;100.00;100551.78;5032466;28;20122;-81
2022/09/24 04:36:12;;;;;;;14.95;10.93;;;;;;;11.79;100.00;100547.47;5031521;28;20049;-80
2022/09/24 04:38:38;;;;;;;16.73;10.88;;;;;;;11.78;100.00;100550.13;5030870;28;20119;-81
2022/09/24 04:41:07;;;;;;;11.88;10.15;;;;;;;11.75;100.00;100546.63;5030111;28;20037;-81
2022/09/24 04:43:35;;;;;;;14.25;11.27;;;;;;;11.74;100.00;100538.81;5014928;28;20693;-81
2022/09/24 04:46:02;;;;;;;14.18;10.70;;;;;;;11.74;100.00;100544.03;5015863;28;20040;-81
2022/09/24 04:48:30;;;;;;;19.52;10.50;;;;;;;11.72;100.00;100546.69;5015640;28;20664;-81
2022/09/24 04:50:57;;;;;;;10.85;9.73;;;;;;;11.71;100.00;100544.09;5030173;28;20478;-82
2022/09/24 04:53:25;;;;;;;11.90;10.45;;;;;;;11.71;100.00;100544.09;5029821;28;20041;-81
2022/09/24 04:55:52;;;;;;;11.65;9.93;;;;;;;11.67;100.00;100547.66;5028820;28;20120;-82
2022/09/24 04:58:21;;;;;;;13.32;11.23;;;;;;;11.62;100.00;100549.50;5013505;28;20045;-82
2022/09/24 05:00:47;;;;;;;12.52;10.43;;;;;;;11.58;100.00;100546.03;5032495;28;20699;-82
2022/09/24 05:03:14;;;;;;;11.98;10.60;;;;;;;11.55;100.00;100544.34;5014255;28;20120;-81
2022/09/24 05:05:44;;;;;;;12.52;10.23;;;;;;;11.54;100.00;100553.06;5043855;28;20044;-80
2022/09/24 05:08:11;;;;;;;10.85;9.65;;;;;;;11.51;100.00;100545.28;5023262;28;20044;-80
2022/09/24 05:10:39;;;;;;;16.05;12.00;;;;;;;11.48;100.00;100549.69;5013326;28;20099;-80
2022/09/24 05:13:06;;;;;;;11.60;9.38;;;;;;;11.45;100.00;100553.22;5029107;28;20041;-81
2022/09/24 05:15:33;;;;;;;12.60;10.15;;;;;;;11.45;100.00;100544.50;5030015;28;20041;-81
2022/09/24 05:17:59;;;;;;;12.98;11.05;;;;;;;11.44;100.00;100551.47;5029537;28;20049;-80
2022/09/24 05:20:26;;;;;;;12.35;10.70;;;;;;;11.45;100.00;100547.13;5025319;28;20474;-81
2022/09/24 05:22:52;;;;;;;11.77;10.05;;;;;;;11.44;100.00;100550.63;4992515;28;20521;-83
2022/09/24 05:25:21;;;;;;;13.88;10.55;;;;;;;11.47;100.00;100553.19;5008678;28;20060;-81
2022/09/24 05:27:50;;;;;;;14.05;10.10;;;;;;;11.47;100.00;100551.44;5002114;28;20049;-81
2022/09/24 05:30:22;;;;;;;13.52;10.38;;;;;;;11.47;100.00;100551.44;4990875;28;20046;-81
2022/09/24 05:32:51;;;;;;;11.45;10.02;;;;;;;11.49;100.00;100557.53;5007905;28;20155;-81
2022/09/24 05:35:22;;;;;;;10.98;9.88;;;;;;;11.53;100.00;100560.97;5004854;28;20503;-80
2022/09/24 05:37:52;;;;;;;20.25;8.98;;;;;;;11.56;100.00;100559.19;5019715;28;20461;-81
2022/09/24 05:43:04;;;;;;;11.35;9.48;;;;;;;11.60;100.00;100567.84;5005037;28;20819;-80
2022/09/24 05:45:35;;;;;;;9.23;8.32;;;;;;;11.63;100.00;100564.31;5008167;28;20141;-81
2022/09/24 05:48:01;;;;;;;11.13;9.13;;;;;;;11.68;100.00;100560.75;5024821;28;20111;-81
2022/09/24 05:50:28;;;;;;;9.55;8.60;;;;;;;11.68;100.00;100560.75;5003745;28;20112;-80
2022/09/24 05:52:55;;;;;;;12.20;9.65;;;;;;;11.67;100.00;100558.16;5006911;28;20092;-82
2022/09/24 05:55:27;;;;;;;11.40;9.77;;;;;;;11.69;100.00;100558.97;5006229;28;20045;-81
2022/09/24 05:57:54;;;;;;;11.00;8.65;;;;;;;11.73;100.00;100564.16;5010499;28;21454;-82
2022/09/24 06:00:21;;;;;;;11.63;8.68;;;;;;;11.75;100.00;100566.75;4995225;28;20132;-81
2022/09/24 06:02:49;;;;;;;9.43;8.43;;;;;;;11.81;100.00;100568.41;5008305;28;20041;-81
2022/09/24 06:05:15;;;;;;;10.02;9.13;;;;;;;11.87;100.00;100571.81;5008481;28;20140;-82
2022/09/24 06:07:42;;;;;;;11.55;7.75;;;;;;;11.89;100.00;100570.03;5008618;28;20042;-81
2022/09/24 06:10:09;;;;;;;12.90;8.27;;;;;;;11.92;100.00;100577.84;5007405;28;20055;-82
2022/09/24 06:12:37;;;;;;;7.38;6.68;;;;;;;11.96;100.00;100570.84;5012230;28;20037;-81
2022/09/24 06:15:06;;;;;;;9.20;8.30;;;;;;;12.00;100.00;100574.28;4996804;28;20077;-82
2022/09/24 06:17:34;;;;;;;10.20;8.20;;;;;;;11.97;100.00;100569.06;4995181;28;20171;-81
2022/09/24 06:20:02;;;;;;;7.13;6.50;;;;;;;11.98;100.00;100565.56;5024371;28;20647;-82
2022/09/24 06:22:28;;;;;;;7.80;7.05;;;;;;;11.96;100.00;100576.06;5023496;28;20049;-81
2022/09/24 06:24:56;;;;;;;7.60;6.93;;;;;;;11.98;100.00;100576.03;5031862;28;20099;-82
2022/09/24 06:27:23;;;;;;;10.85;8.00;;;;;;;11.99;100.00;100578.63;5032787;28;20091;-82
2022/09/24 06:29:52;;;;;;;11.23;8.35;;;;;;;12.01;100.00;100581.25;5044888;28;20056;-82
2022/09/24 06:32:19;;;;;;;11.57;8.15;;;;;;;12.03;100.00;100579.47;5058607;28;20037;-82
2022/09/24 06:34:46;;;;;;;7.97;7.18;;;;;;;12.07;100.00;100586.38;5042640;28;20108;-82
2022/09/24 06:37:14;;;;;;;7.00;6.30;;;;;;;12.14;100.00;100588.03;5031048;28;20079;-81
2022/09/24 06:39:43;;;;;;;8.57;7.68;;;;;;;12.18;100.00;100594.09;5030616;28;20049;-82
2022/09/24 06:42:11;;;;;;;9.18;7.70;;;;;;;12.21;100.00;100581.78;5048107;28;20952;-81
2022/09/24 06:44:38;;;;;;;10.07;7.93;;;;;;;12.25;100.00;100582.59;5035564;28;20043;-81
2022/09/24 06:47:07;;;;;;;10.75;8.20;;;;;;;12.26;100.00;100584.34;5051263;28;20055;-82
2022/09/24 06:49:34;;;;;;;11.50;9.07;;;;;;;12.26;100.00;100583.47;5026620;28;20103;-82
2022/09/24 06:52:00;;;;;;;10.02;8.98;;;;;;;12.28;100.00;100586.94;5031194;28;20049;-81
2022/09/24 06:54:27;;;;;;;9.18;8.18;;;;;;;12.27;100.00;100583.44;5030679;28;20476;-83
2022/09/24 06:56:59;;;;;;;12.73;8.55;;;;;;;12.29;100.00;100581.66;5031812;28;20041;-82
2022/09/24 06:59:25;;;;;;;9.18;7.82;;;;;;;12.36;100.00;100580.66;5015596;28;20118;-82
2022/09/24 07:01:52;;;;;;;12.13;9.00;;;;;;;12.46;99.83;100589.22;5033693;28;20041;-82
2022/09/24 07:04:19;;;;;;;11.65;8.13;;;;;;;12.50;99.31;100588.31;5022406;28;20044;-80
2022/09/24 07:09:51;;;;;;;9.52;8.43;;;;;;;12.63;98.87;100586.28;5037281;28;20041;-81
2022/09/24 07:12:19;;;;;;;10.80;8.00;;;;;;;12.71;98.63;100592.28;5021147;28;20064;-81
2022/09/24 07:14:46;;;;;;;10.88;8.50;;;;;;;12.78;98.21;100581.69;5017263;28;20506;-81
2022/09/24 07:17:13;;;;;;;12.45;7.88;;;;;;;12.83;97.23;100585.94;5018840;28;20041;-81
2022/09/24 07:19:40;;;;;;;9.65;7.88;;;;;;;12.94;96.99;100590.13;5047145;28;20052;-81
2022/09/24 07:22:08;;;;;;;9.88;7.85;;;;;;;12.97;96.63;100582.16;5029448;28;20149;-80
2022/09/24 07:24:36;;;;;;;10.18;8.57;;;;;;;13.04;95.61;100579.38;5036619;28;20091;-81
2022/09/24 07:27:07;;;;;;;9.40;8.40;;;;;;;13.08;94.90;100581.03;5034780;28;20111;-81
2022/09/24 07:29:34;;;;;;;10.25;8.18;;;;;;;13.16;93.92;100582.66;5033376;28;20045;-81
2022/09/24 07:32:02;;;;;;;10.07;8.35;;;;;;;13.28;93.78;100586.78;5034203;28;20120;-81
2022/09/24 07:34:29;;;;;;;10.48;8.32;;;;;;;13.42;93.46;100586.53;5016768;28;20048;-83
2022/09/24 07:36:56;;;;;;;7.47;6.10;;;;;;;13.51;92.36;100592.44;5032351;28;20041;-81
2022/09/24 07:39:24;;;;;;;8.52;6.90;;;;;;;13.60;90.23;100590.50;5049230;28;20045;-82
2022/09/24 07:41:52;;;;;;;10.02;8.57;;;;;;;13.65;87.48;100589.50;5016649;28;20500;-80
2022/09/24 07:44:20;;;;;;;13.27;9.25;;;;;;;13.65;87.09;100593.88;5033670;28;20049;-83
2022/09/24 07:46:48;;;;;;;9.75;8.40;;;;;;;13.61;85.75;100593.13;5035327;28;20554;-80
2022/09/24 07:49:15;;;;;;;11.55;9.18;;;;;;;13.63;85.24;100593.94;5035461;28;20403;-81
2022/09/24 07:51:42;;;;;;;9.32;8.43;;;;;;;13.61;84.52;100592.22;5037391;28;20041;-81
2022/09/24 07:54:10;;;;;;;10.73;9.60;;;;;;;13.63;84.59;100593.06;5025124;28;20049;-81
2022/09/24 07:56:39;;;;;;;9.60;8.65;;;;;;;13.77;83.08;100600.66;5026845;28;20033;-80
2022/09/24 07:59:12;;;;;;;9.55;8.23;;;;;;;13.80;83.36;100604.06;5042258;28;20044;-82
2022/09/24 08:01:39;;;;;;;7.60;6.82;;;;;;;13.88;83.40;100598.63;5052906;28;20121;-81
2022/09/24 08:04:06;;;;;;;12.93;8.73;;;;;;;14.05;83.02;100601.75;5032686;28;20049;-82
2022/09/24 08:06:36;;;;;;;9.05;6.57;;;;;;;14.21;82.15;100602.22;5017220;28;20467;-81
2022/09/24 08:09:04;;;;;;;11.82;9.38;;;;;;;14.31;81.51;100601.97;5015341;28;20028;-81
2022/09/24 08:11:32;;;;;;;7.55;6.68;;;;;;;14.44;81.23;100600.75;5031385;28;20372;-84
2022/09/24 08:14:00;;;;;;;7.85;7.13;;;;;;;14.58;80.36;100602.19;5032922;28;20175;-81
2022/09/24 08:16:27;;;;;;;12.32;9.18;;;;;;;14.54;79.16;100602.25;5029230;28;20051;-81
2022/09/24 08:18:54;;;;;;;13.02;8.57;;;;;;;14.51;79.93;100602.34;5031075;28;20041;-82
2022/09/24 08:21:21;;;;;;;13.90;8.57;;;;;;;14.58;80.24;100602.19;5047030;28;20198;-81
2022/09/24 08:23:48;;;;;;;12.48;7.57;;;;;;;14.64;79.59;100602.91;5029714;28;20037;-81
2022/09/24 08:26:14;;;;;;;10.38;8.23;;;;;;;14.61;79.26;100607.38;5030241;28;20053;-82
2022/09/24 08:28:42;;;;;;;8.65;7.75;;;;;;;14.55;79.45;100600.50;5020854;28;20045;-82
2022/09/24 08:31:12;;;;;;;7.18;6.22;;;;;;;14.52;79.80;100598.81;5050515;28;20510;-81
2022/09/24 08:33:40;;;;;;;13.80;7.72;;;;;;;14.62;80.08;100606.47;5032051;28;20494;-81
2022/09/24 08:36:12;;;;;;;9.65;7.35;;;;;;;14.65;79.62;100603.78;5030236;28;20048;-81
2022/09/24 08:38:42;;;;;;;13.77;7.93;;;;;;;14.65;79.10;100606.41;5028688;28;20060;-82
2022/09/24 08:41:52;;;;;;;8.68;7.78;;;;;;;14.65;78.88;100612.56;5031405;28;20549;-82
2022/09/24 08:48:18;;;;;;;9.48;7.63;;;;;;;14.47;80.12;100619.13;4966451;28;20164;-81
2022/09/24 08:50:57;;;;;;;11.93;9.02;;;;;;;14.44;80.31;100611.28;5059092;28;20072;-84
2022/09/24 08:53:49;;;;;;;12.88;8.48;;;;;;;14.46;80.80;100617.41;5049527;28;20574;-81
2022/09/24 08:56:31;;;;;;;9.32;7.20;;;;;;;14.52;80.85;100611.97;5048642;28;20111;-83
2022/09/24 08:59:23;;;;;;;8.48;6.72;;;;;;;14.61;80.56;100610.84;5030271;28;20116;-82
2022/09/24 09:02:29;;;;;;;9.48;7.85;;;;;;;14.74;80.50;100608.78;5048492;28;20128;-82
2022/09/24 09:05:53;;;;;;;13.57;7.70;;;;;;;14.80;79.64;100626.22;5030346;28;20053;-83
2022/09/24 09:08:51;;;;;;;9.93;8.73;;;;;;;14.64;79.67;100626.63;5015949;28;20475;-83
2022/09/24 09:11:24;;;;;;;8.32;7.53;;;;;;;14.58;80.67;100626.75;5027657;28;20048;-81
2022/09/24 09:14:21;;;;;;;8.07;6.88;;;;;;;14.65;80.28;100632.75;5028908;28;20043;-82
2022/09/24 09:16:54;;;;;;;11.02;7.93;;;;;;;14.69;80.01;100644.94;5028908;28;20424;-82
2022/09/24 09:19:30;;;;;;;9.30;7.03;;;;;;;14.74;79.71;100642.19;5029662;28;20285;-82
2022/09/24 09:22:22;;;;;;;7.57;6.03;;;;;;;14.78;79.54;100644.69;5027858;28;20057;-82
2022/09/24 09:24:54;;;;;;;9.43;8.32;;;;;;;14.84;79.12;100648.94;5031249;28;20547;-82
2022/09/24 09:27:21;;;;;;;7.82;6.60;;;;;;;14.93;78.80;100640.78;5032088;28;20045;-80
2022/09/24 09:29:59;;;;;;;7.22;6.53;;;;;;;15.01;78.60;100641.44;5047221;28;20257;-81
2022/09/24 09:32:57;;;;;;;10.23;6.43;;;;;;;15.10;78.43;100644.75;5018366;28;20132;-83
2022/09/24 09:35:45;;;;;;;9.35;7.65;;;;;;;15.20;78.19;100639.16;5016249;28;20049;-82
2022/09/24 09:38:27;;;;;;;7.80;7.00;;;;;;;15.19;78.21;100640.06;5019448;28;20048;-84
2022/09/24 09:41:20;;;;;;;9.25;7.88;;;;;;;15.17;77.95;100639.22;5035021;28;20068;-83
2022/09/24 09:43:55;;;;;;;10.15;8.05;;;;;;;15.15;77.22;100645.47;5062525;28;20091;-81
2022/09/24 09:46:35;;;;;;;12.48;8.68;;;;;;;15.10;77.91;100645.59;5034909;28;20139;-81
2022/09/24 09:49:07;;;;;;;7.82;7.03;;;;;;;15.14;77.65;100644.59;5015275;28;20053;-82
2022/09/24 09:51:40;;;;;;;9.00;7.47;;;;;;;15.16;77.42;100634.88;5031393;28;20379;-82
2022/09/24 09:54:10;;;;;;;11.85;8.13;;;;;;;15.19;77.53;100636.56;5016609;28;20561;-82
2022/09/24 09:56:48;;;;;;;10.52;8.18;;;;;;;15.20;77.81;100633.88;5031976;28;20106;-83
2022/09/24 09:59:23;;;;;;;9.65;6.70;;;;;;;15.26;78.57;100635.47;5030246;28;20071;-82
2022/09/24 10:01:55;;;;;;;9.63;7.97;;;;;;;15.33;76.78;100644.94;5031523;28;20144;-83
2022/09/24 10:04:33;;;;;;;10.02;7.68;;;;;;;15.38;76.54;100640.41;5029148;28;20045;-83
2022/09/24 10:07:17;;;;;;;9.30;7.93;;;;;;;15.37;76.34;100636.03;5057676;28;20903;-82
2022/09/24 10:09:46;;;;;;;8.70;7.28;;;;;;;15.52;75.72;100636.50;5025974;28;20056;-82
2022/09/24 10:12:25;;;;;;;8.00;6.22;;;;;;;15.64;75.53;100629.97;5011337;28;20412;-82
2022/09/24 10:15:00;;;;;;;9.65;7.60;;;;;;;15.87;75.75;100637.22;5019633;28;20049;-83
2022/09/24 10:17:41;;;;;;;9.85;7.75;;;;;;;16.07;73.85;100636.59;5013528;28;20674;-81
2022/09/24 10:20:26;;;;;;;8.93;8.13;;;;;;;16.13;72.13;100631.09;5014485;28;20810;-84
2022/09/24 10:23:08;;;;;;;9.55;7.38;;;;;;;16.36;71.82;100633.00;5015854;28;20057;-81
2022/09/24 10:25:35;;;;;;;12.65;8.45;;;;;;;16.56;71.19;100628.81;5031870;28;20753;-82
2022/09/24 10:31:12;;;;;;;9.50;7.05;;;;;;;16.92;69.55;100622.31;5035372;28;20036;-83
2022/09/24 10:33:44;;;;;;;9.50;7.93;;;;;;;16.97;69.01;100628.31;5029308;28;20052;-83
2022/09/24 10:36:24;;;;;;;8.65;7.75;;;;;;;16.99;68.16;100626.47;5016301;28;20130;-81
2022/09/24 10:39:12;;;;;;;8.30;7.32;;;;;;;16.91;68.66;100624.09;5012552;28;20088;-84
2022/09/24 10:41:55;;;;;;;8.52;7.28;;;;;;;16.75;68.64;100626.41;5031638;28;20037;-82
2022/09/24 10:44:24;;;;;;;7.38;6.20;;;;;;;16.76;69.86;100616.69;5032045;28;20170;-84
2022/09/24 10:47:39;;;;;;;8.23;7.40;;;;;;;16.88;71.59;100616.25;5030237;28;20985;-81
2022/09/24 10:50:39;;;;;;;6.80;6.15;;;;;;;16.88;69.79;100616.25;5041564;28;20404;-82
2022/09/24 10:53:20;;;;;;;7.28;6.20;;;;;;;16.80;70.32;100611.22;5011714;28;20104;-84
2022/09/24 10:56:15;;;;;;;7.00;5.85;;;;;;;16.66;71.05;100617.00;5030467;28;20045;-83
2022/09/24 10:59:11;;;;;;;7.35;6.65;;;;;;;16.29;72.55;100620.03;5020296;28;20139;-83
2022/09/24 11:02:06;;;;;;;7.45;6.13;;;;;;;16.06;73.52;100619.03;5049796;28;20642;-82
2022/09/24 11:04:53;;;;;;;9.15;7.38;;;;;;;15.98;74.31;100616.63;5032216;28;20128;-82
2022/09/24 11:08:03;;;;;;;8.30;6.43;;;;;;;15.75;74.80;100624.34;5034388;28;20037;-83
2022/09/24 11:10:50;;;;;;;7.95;6.50;;;;;;;15.57;76.19;100617.91;5070603;28;20094;-83
2022/09/24 11:13:48;;;;;;;8.57;6.88;;;;;;;15.37;77.81;100627.28;5041447;28;20072;-83
2022/09/24 11:16:25;;;;;;;7.40;6.70;;;;;;;15.36;78.68;100628.19;5029901;28;20049;-82
2022/09/24 11:19:03;;;;;;;6.40;5.57;;;;;;;15.33;78.87;100628.25;5031268;28;20067;-83
2022/09/24 11:21:56;;;;;;;7.40;6.28;;;;;;;15.35;79.55;100629.94;5033190;28;20055;-83
2022/09/24 11:25:03;;;;;;;7.63;6.82;;;;;;;15.41;80.38;100628.03;5031330;28;20046;-83
2022/09/24 11:28:08;;;;;;;8.13;6.05;;;;;;;15.47;80.89;100631.34;5033507;28;20059;-83
2022/09/24 11:30:53;;;;;;;;;;;;;;;15.37;79.81;100627.28;5033810;28;20040;-84
2022/09/24 11:33:48;;;;;;;7.82;6.20;;;;;;;15.35;80.41;100627.28;5050208;28;19921;-82
2022/09/24 11:36:42;;;;;;;10.48;6.63;;;;;;;15.47;81.18;100620.78;5017454;28;20041;-82
2022/09/24 11:39:46;;;;;;;7.78;6.95;;;;;;;15.72;80.28;100620.03;5050329;28;20033;-82
2022/09/24 11:42:24;;;;;;;9.57;7.47;;;;;;;15.97;79.32;100622.81;5032804;28;20115;-82
2022/09/24 11:45:18;;;;;;;10.63;7.38;;;;;;;16.12;78.47;100624.09;5033454;28;20467;-82
2022/09/24 11:48:10;;;;;;;8.85;7.32;;;;;;;16.06;78.77;100631.34;5032647;28;20084;-82
2022/09/24 11:51:20;;;;;;;8.68;6.75;;;;;;;15.99;78.08;100623.63;5031175;28;20051;-82
2022/09/24 11:54:23;;;;;;;9.13;7.13;;;;;;;15.95;79.69;100618.50;5044412;28;20052;-83
2022/09/24 11:57:01;;;;;;;8.65;6.43;;;;;;;15.92;79.05;100623.88;5031088;28;20060;-83
2022/09/24 11:59:41;;;;;;;8.95;6.55;;;;;;;15.92;79.68;100618.59;5014244;28;20041;-83
2022/09/24 12:02:19;;;;;;;7.72;6.60;;;;;;;15.86;79.63;100617.88;5032231;28;20414;-83
2022/09/24 12:04:55;;;;;;;8.35;6.93;;;;;;;15.86;80.27;100617.88;5030326;28;21719;-83
2022/09/24 12:07:51;;;;;;;12.05;7.20;;;;;;;15.96;80.21;100613.16;5050254;28;20041;-83